Time;durP1;ratioP1;P1;durP2;ratioP2;P2;SDS_P1;SDS_P2;PMS_P1;PMS_P2;Temp;Humidity;BMP_temperature;BMP_pressure;BME280_temperature;BME280_humidity;BME280_pressure;Samples;Min_cycle;Max_cycle;Signal;HPM_P1;HPM_P2
2023/01/14 00:01:21;;;;;;;4.22;1.35;;;24.30;99.90;;;;;;5054819;28;20231;-93
2023/01/14 00:03:54;;;;;;;5.28;1.38;;;24.30;99.90;;;;;;5053021;28;20230;-93
2023/01/14 00:06:27;;;;;;;5.07;1.15;;;24.30;99.90;;;;;;5053878;28;20212;-93
2023/01/14 00:09:00;;;;;;;4.68;1.10;;;24.20;99.90;;;;;;5047326;28;20716;-92
2023/01/14 00:11:51;;;;;;;6.40;1.10;;;24.20;99.90;;;;;;5051643;28;20197;-92
2023/01/14 00:14:32;;;;;;;3.75;1.00;;;24.20;99.90;;;;;;5050400;28;20197;-92
2023/01/14 00:17:06;;;;;;;5.63;1.40;;;24.10;99.90;;;;;;5063482;28;20219;-92
2023/01/14 00:19:37;;;;;;;4.28;0.88;;;24.10;99.90;;;;;;5066066;28;20200;-93
2023/01/14 00:22:10;;;;;;;4.43;1.10;;;24.10;99.90;;;;;;5051616;28;20235;-93
2023/01/14 00:24:44;;;;;;;6.35;1.30;;;24.20;99.90;;;;;;5048202;28;20895;-92
2023/01/14 00:27:19;;;;;;;3.45;1.00;;;24.30;99.90;;;;;;5027965;28;20199;-92
2023/01/14 00:29:53;;;;;;;5.60;1.02;;;24.50;99.90;;;;;;5051468;28;20628;-93
2023/01/14 00:32:25;;;;;;;2.53;0.77;;;24.80;99.90;;;;;;5043759;28;20664;-90
2023/01/14 00:34:58;;;;;;;3.40;0.85;;;24.90;99.90;;;;;;5051179;28;20284;-92
2023/01/14 00:37:30;;;;;;;5.57;1.27;;;25.10;99.90;;;;;;5051552;28;20304;-92
2023/01/14 00:40:01;;;;;;;3.67;1.10;;;25.20;99.90;;;;;;5048416;28;20212;-92
2023/01/14 00:42:34;;;;;;;4.38;1.08;;;25.30;99.90;;;;;;5068036;28;20270;-93
2023/01/14 00:45:11;;;;;;;2.13;0.70;;;25.40;99.90;;;;;;5075988;28;20657;-92
2023/01/14 00:47:43;;;;;;;7.13;1.08;;;25.50;99.90;;;;;;5078689;28;20227;-93
2023/01/14 00:50:16;;;;;;;7.95;1.15;;;25.50;99.90;;;;;;5080395;28;20211;-92
2023/01/14 00:52:48;;;;;;;2.97;0.73;;;25.50;99.90;;;;;;5071873;28;20703;-92
2023/01/14 00:55:20;;;;;;;2.97;1.00;;;25.50;99.90;;;;;;5068458;28;20228;-91
2023/01/14 00:57:56;;;;;;;2.28;0.80;;;25.50;99.90;;;;;;5071821;28;20299;-91
2023/01/14 01:00:30;;;;;;;2.28;0.60;;;25.50;99.90;;;;;;5062463;28;20212;-93
2023/01/14 01:03:03;;;;;;;2.55;0.60;;;25.50;99.90;;;;;;5064834;28;20280;-93
2023/01/14 01:05:37;;;;;;;3.78;0.80;;;25.50;99.90;;;;;;5064837;28;20209;-92
2023/01/14 01:08:11;;;;;;;3.78;0.93;;;25.50;99.90;;;;;;5076270;28;20199;-95
2023/01/14 01:10:45;;;;;;;2.80;0.60;;;25.50;99.90;;;;;;5074737;28;20215;-94
2023/01/14 01:13:17;;;;;;;3.58;0.60;;;25.60;99.90;;;;;;5068303;28;20279;-93
2023/01/14 01:15:51;;;;;;;1.00;0.40;;;25.60;99.90;;;;;;5062943;28;20738;-93
2023/01/14 01:18:24;;;;;;;1.83;0.60;;;25.60;99.90;;;;;;5070129;28;20220;-92
2023/01/14 01:21:02;;;;;;;2.55;0.50;;;25.50;99.90;;;;;;5062540;28;20231;-94
2023/01/14 01:23:36;;;;;;;1.08;0.50;;;25.50;99.90;;;;;;5072002;28;20660;-92
2023/01/14 01:26:09;;;;;;;0.95;0.50;;;25.50;99.90;;;;;;5068933;28;20287;-92
2023/01/14 01:28:41;;;;;;;1.42;0.40;;;25.70;99.90;;;;;;5069699;28;20231;-91
2023/01/14 01:31:17;;;;;;;3.03;0.73;;;25.80;99.90;;;;;;5072002;28;20244;-91
2023/01/14 01:33:52;;;;;;;1.30;0.50;;;26.00;99.90;;;;;;5074531;28;20250;-91
2023/01/14 01:36:27;;;;;;;5.18;0.60;;;26.10;99.90;;;;;;5068525;28;20231;-92
2023/01/14 01:38:59;;;;;;;2.25;0.60;;;26.30;99.90;;;;;;5069808;28;20726;-91
2023/01/14 01:41:32;;;;;;;2.65;0.80;;;26.30;99.90;;;;;;5071742;28;20232;-92
2023/01/14 01:44:09;;;;;;;3.78;1.00;;;26.40;99.90;;;;;;5044268;28;20245;-91
2023/01/14 01:46:45;;;;;;;2.95;0.82;;;26.50;99.90;;;;;;5047948;28;20615;-93
2023/01/14 01:49:18;;;;;;;3.38;0.90;;;26.60;99.90;;;;;;5053038;28;20375;-93
2023/01/14 01:51:57;;;;;;;5.68;1.20;;;26.60;99.90;;;;;;5054486;28;20197;-92
2023/01/14 01:54:33;;;;;;;7.55;0.98;;;26.50;99.90;;;;;;5048098;28;20221;-92
2023/01/14 01:57:06;;;;;;;6.68;1.13;;;26.50;99.90;;;;;;5048900;28;20593;-91
2023/01/14 01:59:41;;;;;;;5.82;1.15;;;26.40;99.90;;;;;;5046608;28;20202;-91
2023/01/14 02:02:15;;;;;;;6.15;1.17;;;26.30;99.90;;;;;;5049869;28;20220;-91
2023/01/14 02:04:49;;;;;;;6.75;1.27;;;26.10;99.90;;;;;;5042055;28;20192;-90
2023/01/14 02:07:25;;;;;;;5.07;0.90;;;26.10;99.90;;;;;;5052279;28;20207;-93
2023/01/14 02:10:01;;;;;;;4.78;0.90;;;26.00;99.90;;;;;;5052882;28;20211;-92
2023/01/14 02:12:45;;;;;;;3.22;0.90;;;26.00;99.90;;;;;;5040893;28;20395;-93
2023/01/14 02:15:33;;;;;;;4.45;0.70;;;26.10;99.90;;;;;;5052384;28;20252;-92
2023/01/14 02:18:30;;;;;;;4.20;0.80;;;26.20;99.90;;;;;;5052403;28;20220;-92
2023/01/14 02:21:13;;;;;;;3.22;0.90;;;26.30;99.90;;;;;;5049903;28;20288;-91
2023/01/14 02:24:20;;;;;;;5.78;0.88;;;26.40;99.90;;;;;;5043257;28;20574;-91
2023/01/14 02:27:34;;;;;;;4.40;0.80;;;26.60;99.90;;;;;;5057348;28;20207;-91
2023/01/14 02:30:44;;;;;;;4.28;1.00;;;26.70;99.90;;;;;;4990504;28;20655;-91
2023/01/14 02:33:38;;;;;;;3.58;0.90;;;26.70;99.90;;;;;;5031202;28;20276;-91
2023/01/14 02:36:20;;;;;;;4.20;0.82;;;26.80;99.90;;;;;;5049686;28;20265;-92
2023/01/14 02:38:58;;;;;;;4.30;0.90;;;26.80;99.90;;;;;;5050620;28;20227;-92
2023/01/14 02:44:28;;;;;;;5.75;0.90;;;26.80;99.90;;;;;;5081266;28;20249;-91
2023/01/14 02:47:03;;;;;;;4.25;0.90;;;26.70;99.90;;;;;;5072771;28;20204;-91
2023/01/14 02:49:41;;;;;;;2.60;0.82;;;26.60;99.90;;;;;;5046797;28;20210;-90
2023/01/14 02:52:13;;;;;;;4.47;0.98;;;26.60;99.90;;;;;;5065858;28;20196;-91
2023/01/14 02:54:56;;;;;;;3.97;0.70;;;26.50;99.90;;;;;;5065310;28;20211;-90
2023/01/14 02:57:46;;;;;;;5.57;1.05;;;26.50;99.90;;;;;;5063366;28;20203;-93
2023/01/14 03:00:24;;;;;;;3.38;1.10;;;26.60;99.90;;;;;;5071396;28;20197;-92
2023/01/14 03:03:15;;;;;;;6.20;0.82;;;26.50;99.90;;;;;;5071474;28;20239;-93
2023/01/14 03:06:08;;;;;;;5.05;1.00;;;26.50;99.90;;;;;;5064141;28;20203;-91
2023/01/14 03:08:44;;;;;;;4.13;1.00;;;26.60;99.90;;;;;;5078458;28;20200;-91
2023/01/14 03:11:16;;;;;;;3.42;0.82;;;26.60;99.90;;;;;;5063027;28;20196;-91
2023/01/14 03:13:54;;;;;;;4.88;0.93;;;26.60;99.90;;;;;;5055881;28;20305;-92
2023/01/14 03:16:31;;;;;;;6.55;1.15;;;26.60;99.90;;;;;;5058666;28;20208;-91
2023/01/14 03:19:08;;;;;;;5.15;1.13;;;26.70;99.90;;;;;;5054257;28;20668;-91
2023/01/14 03:21:48;;;;;;;4.10;0.93;;;26.60;99.90;;;;;;5069640;28;20222;-91
2023/01/14 03:24:24;;;;;;;4.05;1.02;;;26.60;99.90;;;;;;5055514;28;20571;-91
2023/01/14 03:26:58;;;;;;;6.30;0.98;;;26.60;99.90;;;;;;5053926;28;20211;-91
2023/01/14 03:29:35;;;;;;;4.05;0.85;;;26.50;99.90;;;;;;5067923;28;20644;-92
2023/01/14 03:32:13;;;;;;;4.57;1.15;;;26.40;99.90;;;;;;5076078;28;20226;-92
2023/01/14 03:34:56;;;;;;;3.67;0.90;;;26.60;99.90;;;;;;5076470;28;20204;-91
2023/01/14 03:37:33;;;;;;;4.50;0.77;;;26.80;99.90;;;;;;5068908;28;20210;-91
2023/01/14 03:40:08;;;;;;;4.43;0.93;;;26.80;99.90;;;;;;5067571;28;20231;-91
2023/01/14 03:42:44;;;;;;;3.08;0.60;;;26.70;99.90;;;;;;5069638;28;20235;-91
2023/01/14 03:45:21;;;;;;;3.75;0.70;;;26.80;99.90;;;;;;5058932;28;20567;-90
2023/01/14 03:47:54;;;;;;;3.95;0.80;;;26.80;99.90;;;;;;5073768;28;20249;-90
2023/01/14 03:50:31;;;;;;;4.43;0.80;;;26.80;99.90;;;;;;5065081;28;20766;-92
2023/01/14 03:53:16;;;;;;;5.30;0.85;;;26.80;99.90;;;;;;5062398;28;20199;-91
2023/01/14 03:56:00;;;;;;;4.03;0.80;;;26.90;99.90;;;;;;5064261;28;20223;-92
2023/01/14 03:58:39;;;;;;;4.57;0.98;;;26.90;99.90;;;;;;5057653;28;20216;-92
2023/01/14 04:01:16;;;;;;;3.97;0.90;;;26.90;99.90;;;;;;5066505;28;20196;-89
2023/01/14 04:03:48;;;;;;;3.75;0.80;;;27.00;99.90;;;;;;5060539;28;20216;-91
2023/01/14 04:06:19;;;;;;;4.20;0.90;;;27.00;99.90;;;;;;5071613;28;20199;-92
2023/01/14 04:08:56;;;;;;;3.28;0.82;;;26.90;99.90;;;;;;5069109;28;20712;-92
2023/01/14 04:11:28;;;;;;;4.47;0.82;;;26.70;99.90;;;;;;5069527;28;20211;-92
2023/01/14 04:16:47;;;;;;;4.72;0.90;;;26.50;99.90;;;;;;5065975;28;20686;-92
2023/01/14 04:19:18;;;;;;;4.82;0.90;;;26.60;99.90;;;;;;5073317;28;20219;-92
2023/01/14 04:21:51;;;;;;;5.35;0.93;;;26.70;99.90;;;;;;5072120;28;20649;-93
2023/01/14 04:24:25;;;;;;;4.38;0.93;;;26.70;99.90;;;;;;5072540;28;20231;-92
2023/01/14 04:26:58;;;;;;;2.78;0.80;;;26.80;99.90;;;;;;5073089;28;20215;-91
2023/01/14 04:29:30;;;;;;;2.42;0.70;;;26.90;99.90;;;;;;5070349;28;20205;-92
2023/01/14 04:32:01;;;;;;;3.28;0.82;;;27.10;99.90;;;;;;5075444;28;20287;-92
2023/01/14 04:34:34;;;;;;;5.32;0.98;;;27.10;99.90;;;;;;5072450;28;20648;-92
2023/01/14 04:37:05;;;;;;;4.55;0.70;;;26.90;99.90;;;;;;5094662;22;20354;-87
2023/01/14 04:39:39;;;;;;;7.07;1.00;;;26.80;99.90;;;;;;5073661;28;20255;-87
2023/01/14 04:42:31;;;;;;;6.30;1.08;;;26.90;99.90;;;;;;5069782;28;20605;-87
2023/01/14 04:45:03;;;;;;;3.55;0.88;;;26.80;99.90;;;;;;5072643;28;20231;-87
2023/01/14 04:47:34;;;;;;;2.60;0.68;;;26.90;99.90;;;;;;5074423;28;20674;-87
2023/01/14 04:50:30;;;;;;;3.08;0.70;;;26.90;99.90;;;;;;5074635;28;20287;-87
2023/01/14 04:52:56;;;;;;;3.55;0.70;;;27.10;99.90;;;;;;5074265;28;20196;-86
2023/01/14 04:55:29;;;;;;;2.35;0.70;;;27.20;99.90;;;;;;5074159;28;20207;-86
2023/01/14 04:58:00;;;;;;;8.38;0.98;;;27.20;99.90;;;;;;5075019;28;20200;-86
2023/01/14 05:00:31;;;;;;;2.70;0.80;;;27.40;99.90;;;;;;5073299;28;20184;-86
2023/01/14 05:03:04;;;;;;;7.70;0.80;;;27.20;99.90;;;;;;5071538;28;20670;-86
2023/01/14 05:05:36;;;;;;;2.13;0.70;;;27.20;99.90;;;;;;5072880;28;20195;-86
2023/01/14 05:08:08;;;;;;;3.45;0.98;;;27.20;99.90;;;;;;5072117;28;20323;-86
2023/01/14 05:10:46;;;;;;;4.57;0.90;;;27.30;99.90;;;;;;5069190;28;20208;-87
2023/01/14 05:13:17;;;;;;;4.25;0.80;;;27.40;99.90;;;;;;5074087;28;20242;-86
2023/01/14 05:15:48;;;;;;;1.48;0.60;;;27.50;99.90;;;;;;5069874;28;20211;-86
2023/01/14 05:18:20;;;;;;;3.70;0.73;;;27.60;99.90;;;;;;5093895;28;20223;-86
2023/01/14 05:20:51;;;;;;;3.28;0.80;;;27.50;99.90;;;;;;5108956;28;20315;-84
2023/01/14 05:23:22;;;;;;;3.65;0.88;;;27.30;99.90;;;;;;5088650;28;20263;-86
2023/01/14 05:25:56;;;;;;;3.72;1.00;;;27.10;99.90;;;;;;5090914;28;20294;-87
2023/01/14 05:28:28;;;;;;;4.28;0.98;;;27.00;99.90;;;;;;5074056;28;20206;-85
2023/01/14 05:30:59;;;;;;;3.28;0.98;;;27.20;99.90;;;;;;5091629;28;20292;-87
2023/01/14 05:33:32;;;;;;;6.22;0.95;;;27.30;99.90;;;;;;5093368;28;20213;-85
2023/01/14 05:36:03;;;;;;;6.20;0.88;;;27.40;99.90;;;;;;5093058;28;20196;-86
2023/01/14 05:38:34;;;;;;;3.95;0.60;;;27.40;99.90;;;;;;5092375;28;20306;-84
2023/01/14 05:41:09;;;;;;;3.15;0.70;;;27.40;99.90;;;;;;5093419;28;20206;-85
2023/01/14 05:46:27;;;;;;;4.28;0.88;;;27.60;99.90;;;;;;5092585;28;20202;-86
2023/01/14 05:48:59;;;;;;;5.82;1.10;;;27.80;99.90;;;;;;5096815;28;20202;-86
2023/01/14 05:51:30;;;;;;;4.68;0.90;;;27.80;99.90;;;;;;5105688;28;20287;-84
2023/01/14 05:54:01;;;;;;;5.40;1.02;;;27.90;99.90;;;;;;5104623;28;20199;-86
2023/01/14 05:56:34;;;;;;;4.65;1.00;;;28.10;99.90;;;;;;5093823;28;20201;-84
2023/01/14 05:59:07;;;;;;;3.33;0.70;;;28.10;99.90;;;;;;5093431;28;20234;-88
2023/01/14 06:07:12;;;;;;;4.80;1.00;;;28.80;99.90;;;;;;5091064;28;20213;-86
2023/01/14 06:09:43;;;;;;;3.60;0.93;;;28.80;99.90;;;;;;5093127;28;20231;-84
2023/01/14 06:12:33;;;;;;;3.00;0.82;;;29.10;99.90;;;;;;5088985;28;20263;-86
2023/01/14 06:15:05;;;;;;;4.10;0.80;;;29.10;99.90;;;;;;5089592;28;20195;-84
2023/01/14 06:17:44;;;;;;;6.28;0.80;;;29.10;99.90;;;;;;5089465;28;20841;-86
2023/01/14 06:20:17;;;;;;;4.40;0.68;;;29.10;99.90;;;;;;5091352;28;20234;-84
2023/01/14 06:22:48;;;;;;;5.18;0.80;;;29.20;99.90;;;;;;5103091;28;20205;-85
2023/01/14 06:25:19;;;;;;;4.15;0.85;;;29.40;99.90;;;;;;5090885;28;20203;-85
2023/01/14 06:27:52;;;;;;;2.42;0.80;;;29.60;99.90;;;;;;5089412;28;20191;-85
2023/01/14 06:30:23;;;;;;;5.10;1.00;;;29.60;99.90;;;;;;5090718;28;20207;-85
2023/01/14 06:32:56;;;;;;;3.63;0.90;;;29.70;99.90;;;;;;5090700;28;20188;-85
2023/01/14 06:35:30;;;;;;;4.90;0.82;;;30.00;99.90;;;;;;5071433;28;20203;-85
2023/01/14 06:38:01;;;;;;;2.40;0.60;;;30.30;99.90;;;;;;5091158;28;20219;-85
2023/01/14 06:40:32;;;;;;;3.28;0.93;;;30.40;99.90;;;;;;5089017;28;20229;-86
2023/01/14 06:43:07;;;;;;;4.53;1.02;;;30.60;99.90;;;;;;5087967;28;20191;-86
2023/01/14 06:45:39;;;;;;;3.53;0.93;;;30.70;99.90;;;;;;5084798;28;20196;-88
2023/01/14 06:48:10;;;;;;;5.05;0.77;;;31.00;99.90;;;;;;5087006;28;20558;-87
2023/01/14 06:50:41;;;;;;;2.42;0.73;;;31.00;99.90;;;;;;5090391;28;20209;-87
2023/01/14 06:53:12;;;;;;;2.15;0.65;;;31.40;99.90;;;;;;5087603;28;20197;-86
2023/01/14 06:55:43;;;;;;;2.20;0.70;;;31.50;99.90;;;;;;5088790;28;20188;-86
2023/01/14 06:58:16;;;;;;;5.43;1.10;;;31.90;99.90;;;;;;5090873;28;20286;-87
2023/01/14 07:00:47;;;;;;;2.72;0.80;;;32.20;99.90;;;;;;5088528;28;20195;-87
2023/01/14 07:03:20;;;;;;;2.13;0.60;;;32.10;99.90;;;;;;5090522;28;20199;-88
2023/01/14 07:05:50;;;;;;;1.63;0.60;;;32.10;99.90;;;;;;5089701;28;20195;-87
2023/01/14 07:08:22;;;;;;;1.38;0.60;;;32.50;99.90;;;;;;5089378;28;20272;-87
2023/01/14 07:10:53;;;;;;;1.90;0.70;;;33.00;98.60;;;;;;5085322;28;20220;-86
2023/01/14 07:13:28;;;;;;;2.80;0.90;;;33.20;97.60;;;;;;5085147;28;20354;-86
2023/01/14 07:15:59;;;;;;;4.25;0.80;;;33.40;95.20;;;;;;5087001;28;20195;-86
2023/01/14 07:18:30;;;;;;;4.38;0.63;;;33.50;93.50;;;;;;5086144;28;20195;-86
2023/01/14 07:21:01;;;;;;;1.98;0.70;;;33.60;92.70;;;;;;5086706;28;20709;-86
2023/01/14 07:23:32;;;;;;;2.20;0.80;;;33.50;93.30;;;;;;5087026;28;20200;-87
2023/01/14 07:26:03;;;;;;;3.15;0.88;;;33.60;92.40;;;;;;5109611;28;20230;-87
2023/01/14 07:28:38;;;;;;;3.08;0.70;;;33.50;91.90;;;;;;5093013;28;20733;-87
2023/01/14 07:31:09;;;;;;;2.58;0.63;;;33.40;91.80;;;;;;5090082;28;20202;-87
2023/01/14 07:33:40;;;;;;;5.28;1.23;;;33.40;92.60;;;;;;5089546;28;20195;-87
2023/01/14 07:36:11;;;;;;;1.80;0.85;;;33.30;92.10;;;;;;5090859;28;20198;-88
2023/01/14 07:38:43;;;;;;;4.65;0.80;;;33.10;92.90;;;;;;5086333;28;20233;-88
2023/01/14 07:41:17;;;;;;;2.65;1.02;;;33.20;93.30;;;;;;5088561;28;20199;-88
2023/01/14 07:43:51;;;;;;;2.25;0.70;;;33.40;92.20;;;;;;5088961;28;20203;-88
2023/01/14 07:46:22;;;;;;;3.45;0.60;;;33.40;91.30;;;;;;5094044;28;20199;-88
2023/01/14 07:48:53;;;;;;;2.92;0.60;;;33.40;90.80;;;;;;5089703;28;20184;-88
2023/01/14 07:51:24;;;;;;;3.13;0.68;;;33.40;90.40;;;;;;5089216;28;20198;-87
2023/01/14 07:53:54;;;;;;;2.58;0.80;;;33.10;90.70;;;;;;5089141;28;20279;-88
2023/01/14 07:56:27;;;;;;;1.42;0.60;;;33.10;91.40;;;;;;5088094;28;20279;-87
2023/01/14 07:59:00;;;;;;;2.10;0.70;;;32.90;91.50;;;;;;5092309;28;20195;-87
2023/01/14 08:01:31;;;;;;;3.92;0.77;;;32.80;91.30;;;;;;5090064;28;20578;-88
2023/01/14 08:04:02;;;;;;;2.55;0.77;;;32.80;91.10;;;;;;5089827;28;20219;-87
2023/01/14 08:06:34;;;;;;;3.33;0.90;;;32.10;93.30;;;;;;5088319;28;20195;-87
2023/01/14 08:09:06;;;;;;;3.30;0.80;;;32.00;93.40;;;;;;5086288;28;20199;-88
2023/01/14 08:11:38;;;;;;;2.50;0.80;;;31.90;93.70;;;;;;5088276;28;20549;-88
2023/01/14 08:14:11;;;;;;;2.95;0.90;;;31.60;94.80;;;;;;5089519;28;20206;-88
2023/01/14 08:16:42;;;;;;;2.97;0.75;;;31.20;95.70;;;;;;5089262;28;20215;-87
2023/01/14 08:19:14;;;;;;;4.18;0.70;;;30.40;98.60;;;;;;5087672;28;20597;-86
2023/01/14 08:21:46;;;;;;;2.08;0.73;;;30.00;99.90;;;;;;5088470;28;20283;-87
2023/01/14 08:24:17;;;;;;;3.67;0.90;;;29.50;99.90;;;;;;5087247;28;20191;-88
2023/01/14 08:26:48;;;;;;;4.32;0.95;;;28.90;99.90;;;;;;5091593;28;20286;-88
2023/01/14 08:29:20;;;;;;;1.20;0.60;;;28.50;99.90;;;;;;5103734;28;20227;-81
2023/01/14 08:31:54;;;;;;;2.42;0.80;;;28.10;99.90;;;;;;5091619;28;20199;-87
2023/01/14 08:34:25;;;;;;;4.68;1.05;;;27.90;99.90;;;;;;5086602;28;20191;-87
2023/01/14 08:36:57;;;;;;;3.65;0.90;;;27.60;99.90;;;;;;5089221;28;20219;-87
2023/01/14 08:39:27;;;;;;;3.63;0.85;;;27.50;99.90;;;;;;5088260;28;20275;-88
2023/01/14 08:42:00;;;;;;;4.72;0.95;;;27.20;99.90;;;;;;5089335;28;20199;-89
2023/01/14 08:44:33;;;;;;;3.78;0.90;;;27.00;99.90;;;;;;5090937;28;20742;-86
2023/01/14 08:47:04;;;;;;;4.05;0.80;;;26.80;99.90;;;;;;5093385;28;20199;-87
2023/01/14 08:49:36;;;;;;;3.97;0.90;;;26.60;99.90;;;;;;5098158;28;20259;-86
2023/01/14 08:52:07;;;;;;;3.30;0.82;;;26.50;99.90;;;;;;5104328;28;20238;-87
2023/01/14 08:54:38;;;;;;;4.15;0.80;;;26.30;99.90;;;;;;5091126;28;20202;-88
2023/01/14 08:57:10;;;;;;;3.65;0.80;;;26.20;99.90;;;;;;5090231;28;20290;-88
2023/01/14 08:59:43;;;;;;;4.90;1.10;;;26.20;99.90;;;;;;5086963;28;20211;-85
2023/01/14 09:02:18;;;;;;;3.42;0.90;;;26.00;99.90;;;;;;5089931;28;20274;-85
2023/01/14 09:04:48;;;;;;;4.60;1.10;;;25.90;99.90;;;;;;5092432;28;20194;-84
2023/01/14 09:18:46;;;;;;;5.28;1.20;;;25.60;99.90;;;;;;5081172;28;20289;-86
2023/01/14 09:21:17;;;;;;;3.75;1.10;;;25.60;99.90;;;;;;5093446;28;20229;-86
2023/01/14 09:23:48;;;;;;;4.07;0.88;;;25.50;99.90;;;;;;5090494;28;20888;-86
2023/01/14 09:26:20;;;;;;;5.30;0.90;;;25.50;99.90;;;;;;5093166;28;20227;-86
2023/01/14 09:28:51;;;;;;;3.65;0.80;;;25.40;99.90;;;;;;5091157;28;20256;-86
2023/01/14 09:31:24;;;;;;;5.10;1.20;;;25.40;99.90;;;;;;5098664;28;20213;-86
2023/01/14 09:33:55;;;;;;;4.05;0.98;;;25.40;99.90;;;;;;5103834;28;20976;-85
2023/01/14 09:36:26;;;;;;;4.65;0.93;;;25.30;99.90;;;;;;5092406;28;20203;-87
2023/01/14 09:38:57;;;;;;;3.47;1.10;;;25.30;99.90;;;;;;5091966;28;20317;-88
2023/01/14 09:41:31;;;;;;;3.85;1.10;;;25.20;99.90;;;;;;5092141;28;20215;-91
2023/01/14 09:44:04;;;;;;;3.40;0.98;;;25.20;99.90;;;;;;5095569;28;20290;-90
2023/01/14 09:46:39;;;;;;;4.20;1.38;;;25.20;99.90;;;;;;5092488;28;20547;-90
2023/01/14 09:49:11;;;;;;;4.00;0.90;;;25.20;99.90;;;;;;5093219;28;20194;-90
2023/01/14 09:52:06;;;;;;;7.32;1.10;;;25.20;99.90;;;;;;5094659;28;20202;-89
2023/01/14 09:54:43;;;;;;;5.65;0.90;;;25.10;99.90;;;;;;5096065;28;20192;-87
2023/01/14 09:57:21;;;;;;;2.97;0.90;;;25.10;99.90;;;;;;5099492;28;20613;-89
2023/01/14 10:00:00;;;;;;;3.50;1.10;;;25.10;99.90;;;;;;5091669;28;20219;-90
2023/01/14 10:02:44;;;;;;;5.45;0.90;;;25.00;99.90;;;;;;5095082;28;20725;-89
2023/01/14 10:05:23;;;;;;;3.50;1.10;;;25.00;99.90;;;;;;5091371;28;20199;-91
2023/01/14 10:07:54;;;;;;;5.13;1.40;;;25.00;99.90;;;;;;5074931;28;20195;-90
2023/01/14 10:10:29;;;;;;;5.05;1.00;;;25.00;99.90;;;;;;5092526;28;20194;-92
2023/01/14 10:13:04;;;;;;;4.70;0.90;;;25.00;99.90;;;;;;5073954;28;20673;-90
2023/01/14 10:15:40;;;;;;;3.65;1.08;;;25.00;99.90;;;;;;5092110;28;20302;-91
2023/01/14 10:18:25;;;;;;;3.72;0.93;;;25.00;99.90;;;;;;5094470;28;20188;-89
2023/01/14 10:20:58;;;;;;;2.80;0.70;;;25.00;99.90;;;;;;5094921;28;20245;-87
2023/01/14 10:23:33;;;;;;;3.45;0.98;;;24.90;99.90;;;;;;5092174;28;20227;-88
2023/01/14 10:26:12;;;;;;;6.63;1.02;;;24.80;99.90;;;;;;5091830;28;20269;-89
2023/01/14 10:28:44;;;;;;;6.57;1.17;;;24.80;99.90;;;;;;5092849;28;20270;-90
2023/01/14 10:31:19;;;;;;;4.15;0.90;;;24.90;99.90;;;;;;5098606;28;20216;-90
2023/01/14 10:33:54;;;;;;;3.03;0.85;;;24.90;99.90;;;;;;5100133;28;20202;-89
2023/01/14 10:36:29;;;;;;;4.15;1.02;;;24.90;99.90;;;;;;5112477;28;20275;-91
2023/01/14 10:39:03;;;;;;;5.70;0.90;;;24.90;99.90;;;;;;5095123;28;20226;-89
2023/01/14 10:41:53;;;;;;;5.13;1.10;;;24.80;99.90;;;;;;5095885;28;20215;-90
2023/01/14 10:44:28;;;;;;;7.68;1.10;;;24.80;99.90;;;;;;5100131;28;20223;-90
2023/01/14 10:47:02;;;;;;;2.38;0.90;;;24.80;99.90;;;;;;5096529;28;20337;-87
2023/01/14 10:49:42;;;;;;;4.03;1.00;;;24.80;99.90;;;;;;5097519;28;20199;-90
2023/01/14 10:52:29;;;;;;;4.70;1.33;;;24.80;99.90;;;;;;5093133;28;20187;-89
2023/01/14 10:55:02;;;;;;;5.40;1.00;;;24.80;99.90;;;;;;5094463;28;20294;-90
2023/01/14 10:57:35;;;;;;;2.67;0.82;;;24.80;99.90;;;;;;5095622;28;20195;-89
2023/01/14 11:00:08;;;;;;;4.65;0.98;;;24.80;99.90;;;;;;5096501;28;20233;-89
2023/01/14 11:02:41;;;;;;;2.60;0.75;;;24.80;99.90;;;;;;5095849;28;20631;-89
2023/01/14 11:05:28;;;;;;;6.40;1.00;;;24.70;99.90;;;;;;5095771;28;20214;-89
2023/01/14 11:08:02;;;;;;;4.95;0.88;;;24.70;99.90;;;;;;5095041;28;20260;-92
2023/01/14 11:10:35;;;;;;;2.83;0.77;;;24.70;99.90;;;;;;5093953;28;20198;-91
2023/01/14 11:13:25;;;;;;;4.47;1.17;;;24.70;99.90;;;;;;5099007;28;20194;-90
2023/01/14 11:15:57;;;;;;;4.95;0.93;;;24.70;99.90;;;;;;5094666;28;20198;-90
2023/01/14 11:21:21;;;;;;;6.00;1.20;;;24.70;99.90;;;;;;5079946;28;20223;-88
2023/01/14 11:24:01;;;;;;;4.63;1.13;;;24.60;99.90;;;;;;5079622;28;20202;-91
2023/01/14 11:26:36;;;;;;;3.00;1.02;;;24.60;99.90;;;;;;5090249;28;20575;-90
2023/01/14 11:29:18;;;;;;;3.85;1.13;;;24.50;99.90;;;;;;5076848;28;20307;-90
2023/01/14 11:31:52;;;;;;;5.00;0.90;;;24.60;99.90;;;;;;5101474;28;20223;-90
2023/01/14 11:34:30;;;;;;;4.20;1.00;;;24.50;99.90;;;;;;5099895;28;20632;-91
2023/01/14 11:37:33;;;;;;;5.38;0.93;;;24.50;99.90;;;;;;5105920;28;20266;-89
2023/01/14 11:40:04;;;;;;;5.45;0.95;;;24.50;99.90;;;;;;5108165;28;20211;-89
2023/01/14 11:42:37;;;;;;;2.95;0.80;;;24.50;99.90;;;;;;5095409;28;20264;-91
2023/01/14 11:45:21;;;;;;;4.50;1.20;;;24.50;99.90;;;;;;5104197;28;20191;-89
2023/01/14 11:47:56;;;;;;;2.25;0.90;;;24.50;99.90;;;;;;5109813;28;20211;-89
2023/01/14 11:50:35;;;;;;;6.18;1.13;;;24.50;99.90;;;;;;5101643;28;20201;-90
2023/01/14 11:53:16;;;;;;;4.65;1.10;;;24.50;99.90;;;;;;5098400;28;20202;-92
2023/01/14 11:55:50;;;;;;;2.75;0.73;;;24.50;99.90;;;;;;5094575;28;20190;-92
2023/01/14 11:58:27;;;;;;;3.55;0.95;;;24.50;99.90;;;;;;5091374;28;20337;-91
2023/01/14 12:01:03;;;;;;;4.43;1.10;;;24.50;99.90;;;;;;5075142;28;20243;-93
2023/01/14 12:03:38;;;;;;;3.13;1.00;;;24.50;99.90;;;;;;5097178;28;20195;-92
2023/01/14 12:06:13;;;;;;;5.88;1.08;;;24.50;99.90;;;;;;5094606;28;20219;-91
2023/01/14 12:08:49;;;;;;;3.75;1.10;;;24.40;99.90;;;;;;5094453;28;20285;-92
2023/01/14 12:11:26;;;;;;;5.53;1.15;;;24.40;99.90;;;;;;5097665;28;20220;-89
2023/01/14 12:16:56;;;;;;;4.53;1.10;;;24.30;99.90;;;;;;5107523;22;20257;-92
2023/01/14 12:19:34;;;;;;;6.15;1.20;;;24.40;99.90;;;;;;5077017;28;20596;-91
2023/01/14 12:22:15;;;;;;;9.77;1.48;;;24.40;99.90;;;;;;5057758;28;20212;-93
2023/01/14 12:24:59;;;;;;;4.15;1.05;;;24.40;99.90;;;;;;5052996;28;20252;-91
2023/01/14 12:27:46;;;;;;;7.03;1.50;;;24.40;99.90;;;;;;5057157;28;20268;-92
2023/01/14 12:30:35;;;;;;;4.28;1.10;;;24.40;99.90;;;;;;5052380;28;20629;-91
2023/01/14 12:33:09;;;;;;;5.72;1.08;;;24.30;99.90;;;;;;5051562;28;20224;-91
2023/01/14 12:35:44;;;;;;;4.65;1.10;;;24.30;99.90;;;;;;5051789;28;20239;-93
2023/01/14 12:46:55;;;;;;;4.88;1.13;;;24.20;99.90;;;;;;5022578;28;20222;-90
2023/01/14 12:49:26;;;;;;;4.97;1.23;;;24.20;99.90;;;;;;5050265;28;20192;-89
2023/01/14 12:51:57;;;;;;;6.38;1.10;;;24.20;99.90;;;;;;5048814;28;20224;-89
2023/01/14 12:54:31;;;;;;;4.20;0.98;;;24.20;99.90;;;;;;5050097;28;20219;-91
2023/01/14 12:57:07;;;;;;;3.45;0.95;;;24.20;99.90;;;;;;5053220;28;20214;-92
2023/01/14 12:59:44;;;;;;;4.38;1.10;;;24.20;99.90;;;;;;5052464;28;20253;-92
2023/01/14 13:05:08;;;;;;;4.80;1.13;;;24.10;99.90;;;;;;5091182;22;20234;-91
2023/01/14 13:07:50;;;;;;;3.88;0.95;;;24.10;99.90;;;;;;5065208;28;20604;-92
2023/01/14 13:10:34;;;;;;;2.35;0.88;;;24.00;99.90;;;;;;5073045;28;20219;-92
2023/01/14 13:13:19;;;;;;;4.00;1.00;;;24.00;99.90;;;;;;5064382;28;20192;-92
2023/01/14 13:15:50;;;;;;;3.05;0.90;;;24.00;99.90;;;;;;5071324;28;20216;-91
2023/01/14 13:18:50;;;;;;;3.92;1.10;;;24.00;99.90;;;;;;5062239;28;20203;-91
2023/01/14 13:22:00;;;;;;;4.40;1.10;;;24.00;99.90;;;;;;5061298;28;20224;-91
2023/01/14 13:24:37;;;;;;;4.13;1.05;;;23.90;99.90;;;;;;5073861;28;20228;-90
2023/01/14 13:27:37;;;;;;;4.40;0.88;;;23.90;99.90;;;;;;5078379;28;20216;-91
2023/01/14 13:30:45;;;;;;;2.75;0.95;;;23.90;99.90;;;;;;5076655;28;20232;-89
2023/01/14 13:33:23;;;;;;;1.50;0.65;;;23.90;99.90;;;;;;5077774;28;20302;-91
2023/01/14 13:36:22;;;;;;;4.68;1.02;;;23.90;99.90;;;;;;5074354;28;20561;-91
2023/01/14 13:39:11;;;;;;;2.13;0.80;;;23.90;99.90;;;;;;5083468;28;20188;-89
2023/01/14 13:41:48;;;;;;;4.68;0.82;;;23.80;99.90;;;;;;5080665;28;20231;-92
2023/01/14 13:44:25;;;;;;;3.97;0.95;;;23.80;99.90;;;;;;5093682;28;20200;-90
2023/01/14 13:47:02;;;;;;;5.30;1.02;;;23.80;99.90;;;;;;5085614;28;20221;-90
2023/01/14 13:49:40;;;;;;;4.60;0.85;;;23.80;99.90;;;;;;5084851;28;20235;-91
2023/01/14 13:52:21;;;;;;;4.10;1.10;;;23.70;99.90;;;;;;5081956;28;20279;-90
2023/01/14 13:55:00;;;;;;;4.38;0.82;;;23.70;99.90;;;;;;5112978;22;20223;-91
2023/01/14 13:57:36;;;;;;;5.35;0.85;;;23.70;99.90;;;;;;5075898;28;20195;-92
2023/01/14 14:00:29;;;;;;;4.57;0.90;;;23.70;99.90;;;;;;5083440;28;20192;-91
2023/01/14 14:03:37;;;;;;;4.13;0.70;;;23.70;99.90;;;;;;5080393;28;20318;-91
2023/01/14 14:06:43;;;;;;;3.53;0.95;;;23.70;99.90;;;;;;5088858;28;20210;-93
2023/01/14 14:09:31;;;;;;;4.90;1.00;;;23.70;99.90;;;;;;5079113;28;20212;-92
2023/01/14 14:15:30;;;;;;;2.40;0.75;;;23.70;99.90;;;;;;5086646;28;20225;-91
2023/01/14 14:18:36;;;;;;;3.42;0.80;;;23.60;99.90;;;;;;5077804;28;20212;-91
2023/01/14 14:21:25;;;;;;;3.30;0.77;;;23.60;99.90;;;;;;5079782;28;20323;-90